Whitesboro, OK (74577)

10:52 PM CDT on October 01, 2014 (GMT -0500)
RAWS KIAMICHI OK US | Change Station
CLOSE
Current Station
Personal Weather Station
Location: Talihina, OK
Elevation: 680 ft
Nearby Weather Stations

Elev 680 ft 34.76 °N, 94.98 °W | Updated 53 minutes ago

Clear
Clear
79 °F
Feels Like 82 °F
N
0
Wind Variable Wind from North
Gusts 0.0 mph

Today
High -- | Low -- °F
--% Chance of Precip.
Yesterday
High -- | Low -- °F
Precip. -- in
7:14 AM 7:03 PM
First Quarter, 54% visible
Pressure 29.83 in
Visibility 10.0 miles
Clouds Clear
Heat Index 82 °F
Dew Point 70 °F
Humidity 73%
Rainfall 0.00 in
Snow Depth Not available.
UV 0 out of 12
Pollen 9.00 out of 12
Air Quality Not available.
Flu Activity Not available.
METAR KRKR 010335Z AUTO 00000KT 10SM CLR 21/17 A2983 RMK AO2 T02090170

More Conditions Fewer Conditions

Pressure 29.83 in
Visibility 10.0 miles
Clouds Clear
Heat Index 82 °F
Dew Point 70 °F
Humidity 73%
Rainfall 0.00 in
Snow Depth Not available.
UV 0 out of 12
Pollen 9.00 out of 12
Air Quality Not available.
Flu Activity Not available.
METAR KRKR 010335Z AUTO 00000KT 10SM CLR 21/17 A2983 RMK AO2 T02090170

More Conditions Fewer Conditions

10-Day Weather Forecast

Almanac

Astronomy

Oct. 01, 2014 Rise Set
Actual Time 7:14 AM CDT 7:03 PM CDT
Civil Twilight 6:48 AM CDT 7:28 PM CDT
Nautical Twilight 6:19 AM CDT 7:57 PM CDT
Astronomical Twilight 5:50 AM CDT 8:27 PM CDT
Moon 2:05 PM CDT (10/1) No Moon Set
Length of Visible Light 12h 39m
Length of Day
11h 49m
Tomorrow will be 2m 8s shorter.
First Quarter, 54% of the Moon is Illuminated
Today
First Quarter
Oct 8
Full
Oct 15
Last Quarter
Oct 23
New
Oct 30
First Quarter

Today's Extremes

State Highs State Lows

Community

WunderPhotos

Upload Photos

1,758,170 photos uploaded!

Nearby

Snow Depth

Station Depth Elevation
No new snow has been reported.

Earthquake Activity

City Distance Mag. Time & Date
Yale, Oklahoma 148 miles 2.6 11:29 AM CDT
2014-09-30
Minimum magnitude displayed is 2.5.

Coastal Water Temperatures

Place Temperature
No Stations Reporting

Nearby Weather Stations